sensor_id;sensor_type;location;lat;lon;timestamp;pressure;altitude;pressure_sealevel;temperature;humidity
81232;BME280;70703;55.652;37.710;2023-08-06T00:00:07;100520.72;;;23.10;66.05
81232;BME280;70703;55.652;37.710;2023-08-06T00:00:20;100518.25;;;23.08;65.90
81232;BME280;70703;55.652;37.710;2023-08-06T00:00:33;100522.06;;;23.07;66.03
81232;BME280;70703;55.652;37.710;2023-08-06T00:00:44;100521.81;;;23.09;66.10
81232;BME280;70703;55.652;37.710;2023-08-06T00:00:56;100519.34;;;23.07;66.11
81232;BME280;70703;55.652;37.710;2023-08-06T00:01:09;100511.34;;;23.00;66.13
81232;BME280;70703;55.652;37.710;2023-08-06T00:01:21;100511.34;;;23.00;66.20
81232;BME280;70703;55.652;37.710;2023-08-06T00:01:34;100521.81;;;23.09;66.36
81232;BME280;70703;55.652;37.710;2023-08-06T00:01:45;100526.44;;;23.08;66.24
81232;BME280;70703;55.652;37.710;2023-08-06T00:01:57;100520.19;;;23.08;66.27
81232;BME280;70703;55.652;37.710;2023-08-06T00:02:09;100504.50;;;22.98;66.24
81232;BME280;70703;55.652;37.710;2023-08-06T00:02:20;100485.50;;;22.86;66.29
81232;BME280;70703;55.652;37.710;2023-08-06T00:02:32;100520.19;;;23.08;66.34
81232;BME280;70703;55.652;37.710;2023-08-06T00:02:45;100517.44;;;23.08;66.20
81232;BME280;70703;55.652;37.710;2023-08-06T00:02:56;100514.13;;;23.06;66.25
81232;BME280;70703;55.652;37.710;2023-08-06T00:03:08;100509.69;;;22.99;66.27
81232;BME280;70703;55.652;37.710;2023-08-06T00:03:19;100504.25;;;22.99;66.48
81232;BME280;70703;55.652;37.710;2023-08-06T00:03:31;100519.59;;;23.06;66.37
81232;BME280;70703;55.652;37.710;2023-08-06T00:03:43;100475.59;;;22.80;66.46
81232;BME280;70703;55.652;37.710;2023-08-06T00:03:55;100498.16;;;22.92;66.42
81232;BME280;70703;55.652;37.710;2023-08-06T00:04:07;100525.03;;;23.06;66.46
81232;BME280;70703;55.652;37.710;2023-08-06T00:04:19;100465.97;;;22.72;66.50
81232;BME280;70703;55.652;37.710;2023-08-06T00:04:32;100519.59;;;23.06;66.47
81232;BME280;70703;55.652;37.710;2023-08-06T00:04:43;100513.25;;;23.00;66.46
81232;BME280;70703;55.652;37.710;2023-08-06T00:04:56;100527.22;;;23.04;66.47
81232;BME280;70703;55.652;37.710;2023-08-06T00:05:08;100516.31;;;23.04;66.50
81232;BME280;70703;55.652;37.710;2023-08-06T00:05:19;100518.44;;;23.01;66.37
81232;BME280;70703;55.652;37.710;2023-08-06T00:05:32;100520.69;;;23.05;66.50
81232;BME280;70703;55.652;37.710;2023-08-06T00:05:44;100522.31;;;23.06;66.33
81232;BME280;70703;55.652;37.710;2023-08-06T00:05:56;100482.13;;;22.79;66.27
81232;BME280;70703;55.652;37.710;2023-08-06T00:06:08;100523.41;;;23.05;66.48
81232;BME280;70703;55.652;37.710;2023-08-06T00:06:19;100482.22;;;22.84;66.50
81232;BME280;70703;55.652;37.710;2023-08-06T00:06:30;100502.28;;;22.95;66.47
81232;BME280;70703;55.652;37.710;2023-08-06T00:06:42;100520.09;;;23.02;66.45
81232;BME280;70703;55.652;37.710;2023-08-06T00:06:54;100516.31;;;23.04;66.36
81232;BME280;70703;55.652;37.710;2023-08-06T00:07:06;100516.56;;;23.02;66.39
81232;BME280;70703;55.652;37.710;2023-08-06T00:07:17;100513.56;;;23.04;66.36
81232;BME280;70703;55.652;37.710;2023-08-06T00:07:30;100523.63;;;23.03;66.33
81232;BME280;70703;55.652;37.710;2023-08-06T00:07:41;100519.28;;;23.02;66.43
81232;BME280;70703;55.652;37.710;2023-08-06T00:07:53;100516.56;;;23.02;66.37
81232;BME280;70703;55.652;37.710;2023-08-06T00:08:05;100520.09;;;23.02;66.31
81232;BME280;70703;55.652;37.710;2023-08-06T00:08:17;100519.28;;;23.02;66.11
81232;BME280;70703;55.652;37.710;2023-08-06T00:08:30;100512.44;;;22.99;66.18
81232;BME280;70703;55.652;37.710;2023-08-06T00:08:42;100512.97;;;23.01;66.43
81232;BME280;70703;55.652;37.710;2023-08-06T00:08:54;100512.44;;;22.99;66.43
81232;BME280;70703;55.652;37.710;2023-08-06T00:09:06;100521.16;;;23.01;66.46
81232;BME280;70703;55.652;37.710;2023-08-06T00:09:18;100511.84;;;22.97;66.44
81232;BME280;70703;55.652;37.710;2023-08-06T00:09:30;100509.09;;;22.97;66.52
81232;BME280;70703;55.652;37.710;2023-08-06T00:09:42;100500.03;;;22.92;66.45
81232;BME280;70703;55.652;37.710;2023-08-06T00:09:54;100516.47;;;22.97;66.41
81232;BME280;70703;55.652;37.710;2023-08-06T00:10:07;100517.28;;;22.97;66.53
81232;BME280;70703;55.652;37.710;2023-08-06T00:10:19;100512.97;;;23.01;66.50
81232;BME280;70703;55.652;37.710;2023-08-06T00:10:30;100514.09;;;23.00;66.63
81232;BME280;70703;55.652;37.710;2023-08-06T00:10:41;100514.09;;;23.00;66.56
81232;BME280;70703;55.652;37.710;2023-08-06T00:10:53;100516.81;;;23.00;66.67
81232;BME280;70703;55.652;37.710;2023-08-06T00:11:05;100519.53;;;23.00;66.59
81232;BME280;70703;55.652;37.710;2023-08-06T00:11:17;100514.34;;;22.99;66.57
81232;BME280;70703;55.652;37.710;2023-08-06T00:11:30;100526.06;;;22.99;66.52
81232;BME280;70703;55.652;37.710;2023-08-06T00:11:42;100516.22;;;22.98;66.61
81232;BME280;70703;55.652;37.710;2023-08-06T00:11:55;100517.28;;;22.97;66.65
81232;BME280;70703;55.652;37.710;2023-08-06T00:12:08;100513.19;;;22.95;66.70
81232;BME280;70703;55.652;37.710;2023-08-06T00:12:20;100517.28;;;22.97;66.66
81232;BME280;70703;55.652;37.710;2023-08-06T00:12:32;100515.66;;;22.96;66.60
81232;BME280;70703;55.652;37.710;2023-08-06T00:12:44;100493.56;;;22.76;66.38
81232;BME280;70703;55.652;37.710;2023-08-06T00:12:56;100514.00;;;22.95;66.39
81232;BME280;70703;55.652;37.710;2023-08-06T00:13:10;100518.66;;;22.95;66.51
81232;BME280;70703;55.652;37.710;2023-08-06T00:13:21;100517.28;;;22.97;66.47
81232;BME280;70703;55.652;37.710;2023-08-06T00:13:33;100517.81;;;22.94;66.62
81232;BME280;70703;55.652;37.710;2023-08-06T00:13:45;100499.72;;;22.88;66.39
81232;BME280;70703;55.652;37.710;2023-08-06T00:13:57;100499.13;;;22.86;66.51
81232;BME280;70703;55.652;37.710;2023-08-06T00:14:09;100511.78;;;22.92;66.34
81232;BME280;70703;55.652;37.710;2023-08-06T00:14:19;100503.53;;;22.87;66.48
81232;BME280;70703;55.652;37.710;2023-08-06T00:14:31;100513.44;;;22.93;66.59
81232;BME280;70703;55.652;37.710;2023-08-06T00:14:42;100518.66;;;22.95;66.72
81232;BME280;70703;55.652;37.710;2023-08-06T00:14:54;100500.78;;;22.87;66.63
81232;BME280;70703;55.652;37.710;2023-08-06T00:15:08;100523.25;;;22.94;66.71
81232;BME280;70703;55.652;37.710;2023-08-06T00:15:20;100516.16;;;22.93;66.68
81232;BME280;70703;55.652;37.710;2023-08-06T00:15:32;100505.75;;;22.90;66.82
81232;BME280;70703;55.652;37.710;2023-08-06T00:15:44;100522.19;;;22.95;66.86
81232;BME280;70703;55.652;37.710;2023-08-06T00:15:55;100512.84;;;22.91;66.96
81232;BME280;70703;55.652;37.710;2023-08-06T00:16:10;100512.34;;;22.94;66.85
81232;BME280;70703;55.652;37.710;2023-08-06T00:16:22;100513.19;;;22.95;66.89
81232;BME280;70703;55.652;37.710;2023-08-06T00:16:34;100503.47;;;22.82;66.75
81232;BME280;70703;55.652;37.710;2023-08-06T00:16:47;100510.13;;;22.91;66.82
81232;BME280;70703;55.652;37.710;2023-08-06T00:16:59;100495.84;;;22.84;66.89
81232;BME280;70703;55.652;37.710;2023-08-06T00:17:11;100515.31;;;22.93;66.82
81232;BME280;70703;55.652;37.710;2023-08-06T00:17:23;100502.97;;;22.85;66.81
81232;BME280;70703;55.652;37.710;2023-08-06T00:17:36;100517.81;;;22.94;66.84
81232;BME280;70703;55.652;37.710;2023-08-06T00:17:48;100511.78;;;22.92;66.78
81232;BME280;70703;55.652;37.710;2023-08-06T00:17:59;100507.91;;;22.88;66.91
81232;BME280;70703;55.652;37.710;2023-08-06T00:18:11;100517.81;;;22.94;67.00
81232;BME280;70703;55.652;37.710;2023-08-06T00:18:23;100517.81;;;22.94;66.94
81232;BME280;70703;55.652;37.710;2023-08-06T00:18:35;100517.25;;;22.92;66.79
81232;BME280;70703;55.652;37.710;2023-08-06T00:18:46;100516.66;;;22.90;66.75
81232;BME280;70703;55.652;37.710;2023-08-06T00:18:58;100509.56;;;22.89;66.69
81232;BME280;70703;55.652;37.710;2023-08-06T00:19:10;100508.97;;;22.87;66.94
81232;BME280;70703;55.652;37.710;2023-08-06T00:19:22;100516.97;;;22.94;67.07
81232;BME280;70703;55.652;37.710;2023-08-06T00:19:35;100512.03;;;22.91;66.54
81232;BME280;70703;55.652;37.710;2023-08-06T00:19:46;100517.25;;;22.92;66.11
81232;BME280;70703;55.652;37.710;2023-08-06T00:19:57;100513.66;;;22.92;66.15
81232;BME280;70703;55.652;37.710;2023-08-06T00:20:15;100493.38;;;22.82;66.20
81232;BME280;70703;55.652;37.710;2023-08-06T00:20:27;100515.59;;;22.91;66.28
81232;BME280;70703;55.652;37.710;2023-08-06T00:20:39;100522.44;;;22.94;66.31
81232;BME280;70703;55.652;37.710;2023-08-06T00:20:52;100522.94;;;22.91;66.35
81232;BME280;70703;55.652;37.710;2023-08-06T00:21:04;100483.16;;;22.73;66.52
81232;BME280;70703;55.652;37.710;2023-08-06T00:21:16;100515.84;;;22.90;66.30
81232;BME280;70703;55.652;37.710;2023-08-06T00:21:28;100519.97;;;22.92;66.35
81232;BME280;70703;55.652;37.710;2023-08-06T00:21:40;100512.84;;;22.91;66.33
81232;BME280;70703;55.652;37.710;2023-08-06T00:21:52;100523.75;;;22.91;65.96
81232;BME280;70703;55.652;37.710;2023-08-06T00:22:05;100523.25;;;22.94;65.64
81232;BME280;70703;55.652;37.710;2023-08-06T00:22:18;100528.72;;;22.94;65.33
81232;BME280;70703;55.652;37.710;2023-08-06T00:22:30;100525.69;;;22.91;64.86
81232;BME280;70703;55.652;37.710;2023-08-06T00:22:42;100517.81;;;22.94;64.65
81232;BME280;70703;55.652;37.710;2023-08-06T00:22:54;100524.09;;;22.95;64.37
81232;BME280;70703;55.652;37.710;2023-08-06T00:23:05;100515.06;;;22.94;64.83
81232;BME280;70703;55.652;37.710;2023-08-06T00:23:16;100529.56;;;22.95;65.11
81232;BME280;70703;55.652;37.710;2023-08-06T00:23:29;100526.81;;;22.95;65.36
81232;BME280;70703;55.652;37.710;2023-08-06T00:23:41;100519.38;;;22.90;65.48
81232;BME280;70703;55.652;37.710;2023-08-06T00:23:52;100499.84;;;22.76;65.46
81232;BME280;70703;55.652;37.710;2023-08-06T00:24:05;100518.31;;;22.91;65.74
81232;BME280;70703;55.652;37.710;2023-08-06T00:24:18;100524.91;;;22.95;65.88
81232;BME280;70703;55.652;37.710;2023-08-06T00:24:30;100526.56;;;22.96;66.20
81232;BME280;70703;55.652;37.710;2023-08-06T00:24:41;100524.56;;;22.92;66.04
81232;BME280;70703;55.652;37.710;2023-08-06T00:24:53;100495.72;;;22.74;66.26
81232;BME280;70703;55.652;37.710;2023-08-06T00:25:05;100519.97;;;22.92;66.22
81232;BME280;70703;55.652;37.710;2023-08-06T00:25:18;100519.97;;;22.92;66.28
81232;BME280;70703;55.652;37.710;2023-08-06T00:25:31;100524.91;;;22.95;66.13
81232;BME280;70703;55.652;37.710;2023-08-06T00:25:43;100524.91;;;22.95;65.93
81232;BME280;70703;55.652;37.710;2023-08-06T00:25:55;100523.84;;;22.96;65.99
81232;BME280;70703;55.652;37.710;2023-08-06T00:26:07;100523.84;;;22.96;65.93
81232;BME280;70703;55.652;37.710;2023-08-06T00:26:18;100528.78;;;22.99;65.53
81232;BME280;70703;55.652;37.710;2023-08-06T00:26:31;100513.91;;;22.90;65.36
81232;BME280;70703;55.652;37.710;2023-08-06T00:26:43;100523.84;;;22.96;65.41
81232;BME280;70703;55.652;37.710;2023-08-06T00:26:55;100503.78;;;22.86;65.37
81232;BME280;70703;55.652;37.710;2023-08-06T00:27:06;100522.19;;;22.95;65.88
81232;BME280;70703;55.652;37.710;2023-08-06T00:27:19;100521.13;;;22.96;65.99
81232;BME280;70703;55.652;37.710;2023-08-06T00:27:31;100521.38;;;22.95;66.00
81232;BME280;70703;55.652;37.710;2023-08-06T00:27:43;100526.06;;;22.99;65.92
81232;BME280;70703;55.652;37.710;2023-08-06T00:27:56;100530.44;;;23.00;66.03
81232;BME280;70703;55.652;37.710;2023-08-06T00:28:09;100521.94;;;22.97;65.95
81232;BME280;70703;55.652;37.710;2023-08-06T00:28:22;100525.00;;;23.00;65.81
81232;BME280;70703;55.652;37.710;2023-08-06T00:28:35;100524.41;;;22.98;65.79
81232;BME280;70703;55.652;37.710;2023-08-06T00:28:46;100518.69;;;23.00;65.75
81232;BME280;70703;55.652;37.710;2023-08-06T00:28:58;100526.06;;;22.99;65.75
81232;BME280;70703;55.652;37.710;2023-08-06T00:29:11;100522.25;;;23.00;65.49
81232;BME280;70703;55.652;37.710;2023-08-06T00:29:23;100519.47;;;22.95;65.55
81232;BME280;70703;55.652;37.710;2023-08-06T00:29:34;100515.66;;;22.96;65.50
81232;BME280;70703;55.652;37.710;2023-08-06T00:29:48;100520.88;;;22.98;65.40
81232;BME280;70703;55.652;37.710;2023-08-06T00:30:00;100525.00;;;23.00;65.50
81232;BME280;70703;55.652;37.710;2023-08-06T00:30:14;100520.59;;;22.99;65.20
81232;BME280;70703;55.652;37.710;2023-08-06T00:30:26;100517.63;;;23.01;65.14
81232;BME280;70703;55.652;37.710;2023-08-06T00:30:38;100520.59;;;22.99;65.16
81232;BME280;70703;55.652;37.710;2023-08-06T00:30:52;100519.53;;;23.00;64.83
81232;BME280;70703;55.652;37.710;2023-08-06T00:31:05;100522.81;;;23.02;65.20
81232;BME280;70703;55.652;37.710;2023-08-06T00:31:18;100514.34;;;22.99;65.24
81232;BME280;70703;55.652;37.710;2023-08-06T00:31:30;100489.25;;;22.80;65.18
81232;BME280;70703;55.652;37.710;2023-08-06T00:31:41;100512.34;;;22.94;65.27
81232;BME280;70703;55.652;37.710;2023-08-06T00:31:53;100515.97;;;23.00;65.23
81232;BME280;70703;55.652;37.710;2023-08-06T00:32:04;100511.59;;;22.99;65.23
81232;BME280;70703;55.652;37.710;2023-08-06T00:32:16;100522.25;;;23.00;65.17
81232;BME280;70703;55.652;37.710;2023-08-06T00:32:28;100517.88;;;22.99;65.32
81232;BME280;70703;55.652;37.710;2023-08-06T00:32:40;100514.09;;;23.00;65.41
81232;BME280;70703;55.652;37.710;2023-08-06T00:32:51;100522.81;;;23.02;65.37
81232;BME280;70703;55.652;37.710;2023-08-06T00:33:03;100516.81;;;23.00;65.34
81232;BME280;70703;55.652;37.710;2023-08-06T00:33:17;100520.09;;;23.02;65.35
81232;BME280;70703;55.652;37.710;2023-08-06T00:33:28;100476.69;;;22.79;65.32
81232;BME280;70703;55.652;37.710;2023-08-06T00:33:40;100507.47;;;22.96;65.27
81232;BME280;70703;55.652;37.710;2023-08-06T00:33:52;100515.97;;;23.00;65.27
81232;BME280;70703;55.652;37.710;2023-08-06T00:34:03;100522.81;;;23.02;65.26
81232;BME280;70703;55.652;37.710;2023-08-06T00:34:14;100527.47;;;23.02;65.18
81232;BME280;70703;55.652;37.710;2023-08-06T00:34:27;100514.56;;;22.97;65.04
81232;BME280;70703;55.652;37.710;2023-08-06T00:34:41;100529.34;;;23.01;65.20
81232;BME280;70703;55.652;37.710;2023-08-06T00:34:53;100522.81;;;23.02;65.20
81232;BME280;70703;55.652;37.710;2023-08-06T00:35:06;100516.22;;;22.98;65.26
81232;BME280;70703;55.652;37.710;2023-08-06T00:35:19;100524.75;;;23.02;65.14
81232;BME280;70703;55.652;37.710;2023-08-06T00:35:31;100513.50;;;22.98;65.17
81232;BME280;70703;55.652;37.710;2023-08-06T00:35:43;100517.88;;;22.99;65.24
81232;BME280;70703;55.652;37.710;2023-08-06T00:35:54;100514.34;;;22.99;65.16
81232;BME280;70703;55.652;37.710;2023-08-06T00:36:05;100523.09;;;23.01;65.36
81232;BME280;70703;55.652;37.710;2023-08-06T00:36:16;100520.09;;;23.02;65.49
81232;BME280;70703;55.652;37.710;2023-08-06T00:36:28;100523.63;;;23.03;65.52
81232;BME280;70703;55.652;37.710;2023-08-06T00:36:39;100522.00;;;23.02;65.23
81232;BME280;70703;55.652;37.710;2023-08-06T00:36:51;100511.84;;;22.97;65.25
81232;BME280;70703;55.652;37.710;2023-08-06T00:37:05;100522.25;;;23.00;65.19
81232;BME280;70703;55.652;37.710;2023-08-06T00:37:17;100523.91;;;23.01;64.98
81232;BME280;70703;55.652;37.710;2023-08-06T00:37:29;100512.94;;;22.96;64.60
81232;BME280;70703;55.652;37.710;2023-08-06T00:37:40;100512.44;;;22.99;64.32
81232;BME280;70703;55.652;37.710;2023-08-06T00:37:52;100507.91;;;22.88;64.16
81232;BME280;70703;55.652;37.710;2023-08-06T00:38:03;100477.38;;;22.69;63.91
81232;BME280;70703;55.652;37.710;2023-08-06T00:38:16;100515.41;;;22.98;63.33
81232;BME280;70703;55.652;37.710;2023-08-06T00:38:27;100531.00;;;23.02;62.97
81232;BME280;70703;55.652;37.710;2023-08-06T00:38:40;100523.91;;;23.01;62.82
81232;BME280;70703;55.652;37.710;2023-08-06T00:38:53;100531.00;;;23.02;62.79
81232;BME280;70703;55.652;37.710;2023-08-06T00:39:07;100520.00;;;22.97;62.63
81232;BME280;70703;55.652;37.710;2023-08-06T00:39:18;100527.22;;;23.04;62.60
81232;BME280;70703;55.652;37.710;2023-08-06T00:39:31;100528.88;;;23.05;62.61
81232;BME280;70703;55.652;37.710;2023-08-06T00:39:44;100527.22;;;23.04;62.21
81232;BME280;70703;55.652;37.710;2023-08-06T00:39:56;100532.41;;;23.05;62.32
81232;BME280;70703;55.652;37.710;2023-08-06T00:40:08;100503.34;;;22.94;62.34
81232;BME280;70703;55.652;37.710;2023-08-06T00:40:21;100526.16;;;23.05;62.21
81232;BME280;70703;55.652;37.710;2023-08-06T00:40:34;100531.34;;;23.06;62.21
81232;BME280;70703;55.652;37.710;2023-08-06T00:40:45;100523.72;;;23.08;62.04
81232;BME280;70703;55.652;37.710;2023-08-06T00:40:56;100526.69;;;23.07;62.01
81232;BME280;70703;55.652;37.710;2023-08-06T00:41:07;100505.81;;;22.95;61.92
81232;BME280;70703;55.652;37.710;2023-08-06T00:41:19;100528.38;;;23.08;62.00
81232;BME280;70703;55.652;37.710;2023-08-06T00:41:31;100520.09;;;23.02;61.84
81232;BME280;70703;55.652;37.710;2023-08-06T00:41:44;100529.53;;;23.12;62.05
81232;BME280;70703;55.652;37.710;2023-08-06T00:41:56;100527.25;;;23.09;62.02
81232;BME280;70703;55.652;37.710;2023-08-06T00:42:09;100513.25;;;23.00;62.27
81232;BME280;70703;55.652;37.710;2023-08-06T00:42:20;100522.38;;;23.11;61.95
81232;BME280;70703;55.652;37.710;2023-08-06T00:42:32;100527.38;;;23.14;61.95
81232;BME280;70703;55.652;37.710;2023-08-06T00:42:46;100529.03;;;23.15;61.91
81232;BME280;70703;55.652;37.710;2023-08-06T00:42:58;100521.91;;;23.14;61.75
81232;BME280;70703;55.652;37.710;2023-08-06T00:43:09;100533.41;;;23.16;62.02
81232;BME280;70703;55.652;37.710;2023-08-06T00:43:21;100521.34;;;23.12;62.53
81232;BME280;70703;55.652;37.710;2023-08-06T00:43:33;100529.59;;;23.17;63.11
81232;BME280;70703;55.652;37.710;2023-08-06T00:43:46;100527.69;;;23.17;63.04
81232;BME280;70703;55.652;37.710;2023-08-06T00:43:58;100524.13;;;23.17;62.46
81232;BME280;70703;55.652;37.710;2023-08-06T00:44:10;100528.25;;;23.20;62.09
81232;BME280;70703;55.652;37.710;2023-08-06T00:44:23;100522.50;;;23.16;61.94
81232;BME280;70703;55.652;37.710;2023-08-06T00:44:34;100527.69;;;23.17;61.82
81232;BME280;70703;55.652;37.710;2023-08-06T00:44:46;100526.34;;;23.20;61.71
81232;BME280;70703;55.652;37.710;2023-08-06T00:44:58;100528.00;;;23.21;61.63
81232;BME280;70703;55.652;37.710;2023-08-06T00:45:10;100522.53;;;23.21;61.72
81232;BME280;70703;55.652;37.710;2023-08-06T00:45:21;100526.94;;;23.22;61.44
81232;BME280;70703;55.652;37.710;2023-08-06T00:45:34;100530.19;;;23.19;61.48
81232;BME280;70703;55.652;37.710;2023-08-06T00:45:47;100521.16;;;23.18;61.44
81232;BME280;70703;55.652;37.710;2023-08-06T00:45:58;100530.22;;;23.24;61.23
81232;BME280;70703;55.652;37.710;2023-08-06T00:46:11;100518.75;;;23.22;61.49
81232;BME280;70703;55.652;37.710;2023-08-06T00:46:23;100524.75;;;23.24;61.46
81232;BME280;70703;55.652;37.710;2023-08-06T00:46:35;100504.06;;;23.06;61.38
81232;BME280;70703;55.652;37.710;2023-08-06T00:46:48;100524.19;;;23.22;61.34
81232;BME280;70703;55.652;37.710;2023-08-06T00:46:59;100529.75;;;23.27;61.30
81232;BME280;70703;55.652;37.710;2023-08-06T00:47:12;100519.31;;;23.24;61.17
81232;BME280;70703;55.652;37.710;2023-08-06T00:47:25;100520.41;;;23.23;61.09
81232;BME280;70703;55.652;37.710;2023-08-06T00:47:36;100528.63;;;23.28;61.19
81232;BME280;70703;55.652;37.710;2023-08-06T00:47:50;100524.28;;;23.27;61.09
81232;BME280;70703;55.652;37.710;2023-08-06T00:48:02;100528.38;;;23.30;61.08
81232;BME280;70703;55.652;37.710;2023-08-06T00:48:16;100529.22;;;23.30;61.26
81232;BME280;70703;55.652;37.710;2023-08-06T00:48:27;100526.50;;;23.30;61.05
81232;BME280;70703;55.652;37.710;2023-08-06T00:48:39;100524.03;;;23.29;60.98
81232;BME280;70703;55.652;37.710;2023-08-06T00:48:52;100521.53;;;23.27;60.91
81232;BME280;70703;55.652;37.710;2023-08-06T00:49:19;100532.50;;;23.32;60.94
81232;BME280;70703;55.652;37.710;2023-08-06T00:49:31;100523.19;;;23.28;60.95
81232;BME280;70703;55.652;37.710;2023-08-06T00:49:44;100521.84;;;23.31;61.05
81232;BME280;70703;55.652;37.710;2023-08-06T00:49:56;100513.84;;;23.24;60.86
81232;BME280;70703;55.652;37.710;2023-08-06T00:50:09;100525.97;;;23.33;60.95
81232;BME280;70703;55.652;37.710;2023-08-06T00:50:21;100524.31;;;23.32;60.96
81232;BME280;70703;55.652;37.710;2023-08-06T00:50:33;100518.31;;;23.30;60.84
81232;BME280;70703;55.652;37.710;2023-08-06T00:50:45;100506.25;;;23.26;60.93
81232;BME280;70703;55.652;37.710;2023-08-06T00:50:56;100524.66;;;23.36;60.68
81232;BME280;70703;55.652;37.710;2023-08-06T00:51:08;100516.13;;;23.32;60.79
81232;BME280;70703;55.652;37.710;2023-08-06T00:51:22;100525.47;;;23.37;60.81
81232;BME280;70703;55.652;37.710;2023-08-06T00:51:35;100484.19;;;23.11;60.74
81232;BME280;70703;55.652;37.710;2023-08-06T00:51:47;100528.78;;;23.39;60.81
81232;BME280;70703;55.652;37.710;2023-08-06T00:51:59;100527.13;;;23.38;60.92
81232;BME280;70703;55.652;37.710;2023-08-06T00:52:11;100527.13;;;23.38;60.80
81232;BME280;70703;55.652;37.710;2023-08-06T00:52:24;100518.69;;;23.39;60.76
81232;BME280;70703;55.652;37.710;2023-08-06T00:52:36;100519.72;;;23.33;60.75
81232;BME280;70703;55.652;37.710;2023-08-06T00:52:49;100527.41;;;23.41;60.59
81232;BME280;70703;55.652;37.710;2023-08-06T00:53:02;100488.91;;;23.15;60.77
81232;BME280;70703;55.652;37.710;2023-08-06T00:53:14;100512.00;;;23.30;60.59
81232;BME280;70703;55.652;37.710;2023-08-06T00:53:27;100519.19;;;23.36;60.64
81232;BME280;70703;55.652;37.710;2023-08-06T00:53:38;100519.50;;;23.40;60.72
81232;BME280;70703;55.652;37.710;2023-08-06T00:53:52;100494.19;;;23.22;60.47
81232;BME280;70703;55.652;37.710;2023-08-06T00:54:04;100513.72;;;23.36;60.53
81232;BME280;70703;55.652;37.710;2023-08-06T00:54:16;100531.56;;;23.44;60.61
81232;BME280;70703;55.652;37.710;2023-08-06T00:54:28;100523.38;;;23.44;60.48
81232;BME280;70703;55.652;37.710;2023-08-06T00:54:41;100532.13;;;23.46;60.56
81232;BME280;70703;55.652;37.710;2023-08-06T00:54:53;100518.41;;;23.41;60.43
81232;BME280;70703;55.652;37.710;2023-08-06T00:55:07;100524.75;;;23.46;60.57
81232;BME280;70703;55.652;37.710;2023-08-06T00:55:21;100529.97;;;23.48;60.44
81232;BME280;70703;55.652;37.710;2023-08-06T00:55:33;100515.13;;;23.39;60.42
81232;BME280;70703;55.652;37.710;2023-08-06T00:55:44;100504.22;;;23.39;60.42
81232;BME280;70703;55.652;37.710;2023-08-06T00:55:56;100524.50;;;23.48;60.58
81232;BME280;70703;55.652;37.710;2023-08-06T00:56:09;100505.81;;;23.34;60.28
81232;BME280;70703;55.652;37.710;2023-08-06T00:56:21;100495.88;;;23.28;60.59
81232;BME280;70703;55.652;37.710;2023-08-06T00:56:34;100528.31;;;23.47;60.49
81232;BME280;70703;55.652;37.710;2023-08-06T00:56:47;100534.34;;;23.49;60.19
81232;BME280;70703;55.652;37.710;2023-08-06T00:57:01;100523.09;;;23.45;60.41
81232;BME280;70703;55.652;37.710;2023-08-06T00:57:12;100526.41;;;23.47;60.41
81232;BME280;70703;55.652;37.710;2023-08-06T00:57:24;100533.28;;;23.50;60.35
81232;BME280;70703;55.652;37.710;2023-08-06T00:57:35;100528.88;;;23.49;60.30
81232;BME280;70703;55.652;37.710;2023-08-06T00:57:48;100522.84;;;23.47;60.02
81232;BME280;70703;55.652;37.710;2023-08-06T00:58:02;100509.41;;;23.40;60.28
81232;BME280;70703;55.652;37.710;2023-08-06T00:58:14;100523.44;;;23.49;60.13
81232;BME280;70703;55.652;37.710;2023-08-06T00:58:27;100526.16;;;23.49;60.25
81232;BME280;70703;55.652;37.710;2023-08-06T00:58:39;100524.50;;;23.48;60.25
81232;BME280;70703;55.652;37.710;2023-08-06T00:58:51;100521.78;;;23.48;60.24
81232;BME280;70703;55.652;37.710;2023-08-06T00:59:05;100529.44;;;23.51;60.27
81232;BME280;70703;55.652;37.710;2023-08-06T00:59:16;100524.00;;;23.51;60.19
81232;BME280;70703;55.652;37.710;2023-08-06T00:59:29;100522.63;;;23.48;60.26
81232;BME280;70703;55.652;37.710;2023-08-06T00:59:42;100524.25;;;23.49;60.11
81232;BME280;70703;55.652;37.710;2023-08-06T00:59:54;100530.56;;;23.50;60.19
81232;BME280;70703;55.652;37.710;2023-08-06T01:00:12;100531.69;;;23.54;60.15
81232;BME280;70703;55.652;37.710;2023-08-06T01:00:31;100522.84;;;23.47;60.08
81232;BME280;70703;55.652;37.710;2023-08-06T01:00:56;100533.06;;;23.57;60.04
81232;BME280;70703;55.652;37.710;2023-08-06T01:01:31;100524.56;;;23.53;60.01
81232;BME280;70703;55.652;37.710;2023-08-06T01:01:43;100534.97;;;23.56;59.99
81232;BME280;70703;55.652;37.710;2023-08-06T01:02:04;100533.06;;;23.57;60.08
81232;BME280;70703;55.652;37.710;2023-08-06T01:02:17;100510.56;;;23.44;60.00
81232;BME280;70703;55.652;37.710;2023-08-06T01:02:29;100531.97;;;23.58;60.04
81232;BME280;70703;55.652;37.710;2023-08-06T01:02:40;100526.78;;;23.56;59.93
81232;BME280;70703;55.652;37.710;2023-08-06T01:02:51;100529.00;;;23.59;59.88
81232;BME280;70703;55.652;37.710;2023-08-06T01:03:03;100531.72;;;23.59;59.94
81232;BME280;70703;55.652;37.710;2023-08-06T01:03:15;100533.91;;;23.57;59.90
81232;BME280;70703;55.652;37.710;2023-08-06T01:03:27;100527.84;;;23.55;59.95
81232;BME280;70703;55.652;37.710;2023-08-06T01:03:38;100517.97;;;23.49;59.86
81232;BME280;70703;55.652;37.710;2023-08-06T01:03:51;100531.72;;;23.59;59.85
81232;BME280;70703;55.652;37.710;2023-08-06T01:04:03;100535.31;;;23.60;59.84